createdAt,value
2023-02-19T00:00:01.000Z,97305
2023-02-19T00:05:01.000Z,97308
2023-02-19T00:10:01.000Z,97305
2023-02-19T00:15:01.000Z,97312
2023-02-19T00:20:01.000Z,97296
2023-02-19T00:25:01.000Z,97297
2023-02-19T00:30:01.000Z,97297
2023-02-19T00:35:01.000Z,97293
2023-02-19T00:40:01.000Z,97292
2023-02-19T00:45:01.000Z,97289
2023-02-19T00:50:01.000Z,97293
2023-02-19T00:55:01.000Z,97304
2023-02-19T01:00:01.000Z,97294
2023-02-19T01:05:01.000Z,97307
2023-02-19T01:10:01.000Z,97302
2023-02-19T01:15:01.000Z,97300
2023-02-19T01:20:01.000Z,97295
2023-02-19T01:25:01.000Z,97281
2023-02-19T01:30:01.000Z,97288
2023-02-19T01:35:01.000Z,97293
2023-02-19T01:40:01.000Z,97278
2023-02-19T01:45:01.000Z,97275
2023-02-19T01:50:01.000Z,97278
2023-02-19T01:55:01.000Z,97300
2023-02-19T02:00:01.000Z,97285
2023-02-19T02:05:01.000Z,97268
2023-02-19T02:10:01.000Z,97254
2023-02-19T02:15:01.000Z,97247
2023-02-19T02:20:01.000Z,97231
2023-02-19T02:25:01.000Z,97238
2023-02-19T02:30:01.000Z,97241
2023-02-19T02:35:01.000Z,97226
2023-02-19T02:40:01.000Z,97227
2023-02-19T02:45:01.000Z,97234
2023-02-19T02:50:01.000Z,97230
2023-02-19T02:55:01.000Z,97228
2023-02-19T03:00:01.000Z,97232
2023-02-19T03:05:01.000Z,97228
2023-02-19T03:10:01.000Z,97234
2023-02-19T03:15:01.000Z,97214
2023-02-19T03:20:01.000Z,97206
2023-02-19T03:25:01.000Z,97203
2023-02-19T03:30:01.000Z,97224
2023-02-19T03:35:01.000Z,97210
2023-02-19T03:40:01.000Z,97201
2023-02-19T03:45:01.000Z,97205
2023-02-19T03:50:01.000Z,97225
2023-02-19T03:55:01.000Z,97243
2023-02-19T04:00:01.000Z,97261
2023-02-19T04:05:01.000Z,97225
2023-02-19T04:10:01.000Z,97222
2023-02-19T04:15:01.000Z,97202
2023-02-19T04:20:01.000Z,97190
2023-02-19T04:25:01.000Z,97208
2023-02-19T04:30:01.000Z,97213
2023-02-19T04:35:01.000Z,97215
2023-02-19T04:40:01.000Z,97245
2023-02-19T04:45:01.000Z,97229
2023-02-19T04:50:01.000Z,97203
2023-02-19T04:55:01.000Z,97215
2023-02-19T05:00:01.000Z,97185
2023-02-19T05:05:01.000Z,97211
2023-02-19T05:10:01.000Z,97210
2023-02-19T05:15:01.000Z,97222
2023-02-19T05:20:01.000Z,97230
2023-02-19T05:25:01.000Z,97225
2023-02-19T05:30:01.000Z,97214
2023-02-19T05:35:01.000Z,97206
2023-02-19T05:40:01.000Z,97210
2023-02-19T05:45:01.000Z,97223
2023-02-19T05:50:01.000Z,97223
2023-02-19T05:55:01.000Z,97207
2023-02-19T06:00:01.000Z,97222
2023-02-19T06:05:01.000Z,97238
2023-02-19T06:10:01.000Z,97246
2023-02-19T06:15:01.000Z,97277
2023-02-19T06:20:01.000Z,97275
2023-02-19T06:25:01.000Z,97272
2023-02-19T06:30:01.000Z,97282
2023-02-19T06:35:01.000Z,97294
2023-02-19T06:40:01.000Z,97283
2023-02-19T06:45:01.000Z,97283
2023-02-19T06:50:01.000Z,97289
2023-02-19T06:55:01.000Z,97287
2023-02-19T07:00:01.000Z,97293
2023-02-19T07:05:01.000Z,97311
2023-02-19T07:10:01.000Z,97317
2023-02-19T07:15:01.000Z,97326
2023-02-19T07:20:01.000Z,97326
2023-02-19T07:25:01.000Z,97339
2023-02-19T07:30:01.000Z,97336
2023-02-19T07:35:01.000Z,97353
2023-02-19T07:40:01.000Z,97364
2023-02-19T07:45:01.000Z,97375
2023-02-19T07:50:01.000Z,97372
2023-02-19T07:55:01.000Z,97376
2023-02-19T08:00:01.000Z,97395
2023-02-19T08:05:01.000Z,97403
2023-02-19T08:10:01.000Z,97409
2023-02-19T08:15:01.000Z,97400
2023-02-19T08:20:01.000Z,97406
2023-02-19T08:25:01.000Z,97403
2023-02-19T08:30:01.000Z,97412
2023-02-19T08:35:01.000Z,97420
2023-02-19T08:40:01.000Z,97425
2023-02-19T08:45:01.000Z,97419
2023-02-19T08:50:01.000Z,97426
2023-02-19T08:55:01.000Z,97425
2023-02-19T09:00:01.000Z,97429
2023-02-19T09:05:01.000Z,97416
2023-02-19T09:10:01.000Z,97412
2023-02-19T09:15:01.000Z,97425
2023-02-19T09:20:01.000Z,97416
2023-02-19T09:25:01.000Z,97424
2023-02-19T09:30:01.000Z,97418
2023-02-19T09:35:01.000Z,97418
2023-02-19T09:40:01.000Z,97431
2023-02-19T09:45:01.000Z,97423
2023-02-19T09:50:01.000Z,97430
2023-02-19T09:55:01.000Z,97424
2023-02-19T10:00:01.000Z,97430
2023-02-19T10:05:01.000Z,97426
2023-02-19T10:10:01.000Z,97416
2023-02-19T10:15:01.000Z,97415
2023-02-19T10:20:01.000Z,97413
2023-02-19T10:25:01.000Z,97426
2023-02-19T10:30:01.000Z,97416
2023-02-19T10:35:01.000Z,97411
2023-02-19T10:40:01.000Z,97412
2023-02-19T10:45:01.000Z,97408
2023-02-19T10:50:01.000Z,97402
2023-02-19T10:55:01.000Z,97397
2023-02-19T11:00:01.000Z,97397
2023-02-19T11:05:01.000Z,97389
2023-02-19T11:10:01.000Z,97384
2023-02-19T11:15:01.000Z,97396
2023-02-19T11:20:01.000Z,97394
2023-02-19T11:25:01.000Z,97396
2023-02-19T11:30:01.000Z,97382
2023-02-19T11:35:01.000Z,97376
2023-02-19T11:40:01.000Z,97372
2023-02-19T11:45:01.000Z,97370
2023-02-19T11:50:01.000Z,97369
2023-02-19T11:55:01.000Z,97372
2023-02-19T12:00:01.000Z,97358
2023-02-19T12:05:01.000Z,97357
2023-02-19T12:10:01.000Z,97350
2023-02-19T12:15:01.000Z,97344
2023-02-19T12:20:01.000Z,97347
2023-02-19T12:25:01.000Z,97343
2023-02-19T12:30:01.000Z,97342
2023-02-19T12:35:01.000Z,97345
2023-02-19T12:40:01.000Z,97356
2023-02-19T12:45:01.000Z,97361
2023-02-19T12:50:01.000Z,97352
2023-02-19T12:55:01.000Z,97344
2023-02-19T13:00:01.000Z,97345
2023-02-19T13:05:01.000Z,97356
2023-02-19T13:10:01.000Z,97357
2023-02-19T13:15:01.000Z,97374
2023-02-19T13:20:01.000Z,97372
2023-02-19T13:25:01.000Z,97375
2023-02-19T13:30:01.000Z,97374
2023-02-19T13:35:01.000Z,97373
2023-02-19T13:40:01.000Z,97369
2023-02-19T13:45:01.000Z,97379
2023-02-19T13:50:01.000Z,97375
2023-02-19T13:55:01.000Z,97372
2023-02-19T14:00:01.000Z,97356
2023-02-19T14:05:01.000Z,97383
2023-02-19T14:10:01.000Z,97368
2023-02-19T14:15:01.000Z,97371
2023-02-19T14:20:01.000Z,97374
2023-02-19T14:25:01.000Z,97356
2023-02-19T14:30:02.000Z,97358
2023-02-19T14:35:02.000Z,97357
2023-02-19T14:40:02.000Z,97361
2023-02-19T14:45:02.000Z,97354
2023-02-19T14:50:02.000Z,97342
2023-02-19T14:55:02.000Z,97334
2023-02-19T15:00:02.000Z,97332
2023-02-19T15:05:02.000Z,97332
2023-02-19T15:10:02.000Z,97341
2023-02-19T15:15:02.000Z,97339
2023-02-19T15:20:02.000Z,97352
2023-02-19T15:25:02.000Z,97376
2023-02-19T15:30:02.000Z,97380
2023-02-19T15:35:02.000Z,97392
2023-02-19T15:40:02.000Z,97402
2023-02-19T15:45:02.000Z,97415
2023-02-19T15:50:02.000Z,97416
2023-02-19T15:55:02.000Z,97416
2023-02-19T16:00:02.000Z,97422
2023-02-19T16:05:02.000Z,97435
2023-02-19T16:10:02.000Z,97427
2023-02-19T16:15:02.000Z,97435
2023-02-19T16:20:02.000Z,97444
2023-02-19T16:25:02.000Z,97445
2023-02-19T16:30:02.000Z,97451
2023-02-19T16:35:02.000Z,97470
2023-02-19T16:40:02.000Z,97474
2023-02-19T16:45:02.000Z,97487
2023-02-19T16:50:02.000Z,97490
2023-02-19T16:55:02.000Z,97495
2023-02-19T17:00:02.000Z,97502
2023-02-19T17:05:02.000Z,97511
2023-02-19T17:10:02.000Z,97521
2023-02-19T17:15:02.000Z,97520
2023-02-19T17:20:02.000Z,97530
2023-02-19T17:25:02.000Z,97542
2023-02-19T17:30:02.000Z,97529
2023-02-19T17:35:02.000Z,97549
2023-02-19T17:40:02.000Z,97548
2023-02-19T17:45:02.000Z,97549
2023-02-19T17:50:02.000Z,97553
2023-02-19T17:55:02.000Z,97544
2023-02-19T18:00:02.000Z,97544
2023-02-19T18:05:02.000Z,97528
2023-02-19T18:10:02.000Z,97527
2023-02-19T18:15:02.000Z,97536
2023-02-19T18:20:02.000Z,97532
2023-02-19T18:25:02.000Z,97534
2023-02-19T18:30:02.000Z,97543
2023-02-19T18:35:02.000Z,97552
2023-02-19T18:40:02.000Z,97559
2023-02-19T18:45:02.000Z,97552
2023-02-19T18:50:02.000Z,97556
2023-02-19T18:55:02.000Z,97558
2023-02-19T19:00:02.000Z,97535
2023-02-19T19:05:02.000Z,97539
2023-02-19T19:10:02.000Z,97556
2023-02-19T19:15:02.000Z,97558
2023-02-19T19:20:02.000Z,97553
2023-02-19T19:25:02.000Z,97574
2023-02-19T19:30:02.000Z,97561
2023-02-19T19:35:02.000Z,97548
2023-02-19T19:40:02.000Z,97572
2023-02-19T19:45:02.000Z,97570
2023-02-19T19:50:02.000Z,97567
2023-02-19T19:55:02.000Z,97570
2023-02-19T20:00:02.000Z,97576
2023-02-19T20:05:02.000Z,97562
2023-02-19T20:10:02.000Z,97580
2023-02-19T20:15:02.000Z,97581
2023-02-19T20:20:02.000Z,97581
2023-02-19T20:25:02.000Z,97588
2023-02-19T20:30:02.000Z,97586
2023-02-19T20:35:02.000Z,97586
2023-02-19T20:40:02.000Z,97593
2023-02-19T20:45:02.000Z,97603
2023-02-19T20:50:02.000Z,97592
2023-02-19T20:55:02.000Z,97623
2023-02-19T21:00:02.000Z,97628
2023-02-19T21:05:02.000Z,97619
2023-02-19T21:10:02.000Z,97627
2023-02-19T21:15:02.000Z,97641
2023-02-19T21:20:02.000Z,97636
2023-02-19T21:25:02.000Z,97645
2023-02-19T21:30:02.000Z,97639
2023-02-19T21:35:02.000Z,97646
2023-02-19T21:40:02.000Z,97639
2023-02-19T21:45:02.000Z,97632
2023-02-19T21:50:02.000Z,97644
2023-02-19T21:55:02.000Z,97632
2023-02-19T22:00:02.000Z,97638
2023-02-19T22:05:02.000Z,97629
2023-02-19T22:10:02.000Z,97648
2023-02-19T22:15:02.000Z,97638
2023-02-19T22:20:02.000Z,97633
2023-02-19T22:25:02.000Z,97627
2023-02-19T22:30:02.000Z,97633
2023-02-19T22:35:02.000Z,97650
2023-02-19T22:40:02.000Z,97652
2023-02-19T22:45:02.000Z,97651
2023-02-19T22:50:02.000Z,97646
2023-02-19T22:55:02.000Z,97638
2023-02-19T23:00:02.000Z,97641
2023-02-19T23:05:02.000Z,97646
2023-02-19T23:10:02.000Z,97652
2023-02-19T23:15:02.000Z,97637
2023-02-19T23:20:02.000Z,97637
2023-02-19T23:25:02.000Z,97624
2023-02-19T23:30:02.000Z,97636
2023-02-19T23:35:02.000Z,97636
2023-02-19T23:40:02.000Z,97650
2023-02-19T23:45:02.000Z,97652
2023-02-19T23:50:02.000Z,97633
2023-02-19T23:55:02.000Z,97636
